createdAt,value
2018-12-01T00:00:16.788Z,7.20
2018-12-01T00:02:45.011Z,7.20
2018-12-01T00:05:13.614Z,7.20
2018-12-01T00:07:42.307Z,7.20
2018-12-01T00:10:10.921Z,7.20
2018-12-01T00:12:39.468Z,7.20
2018-12-01T00:15:09.628Z,7.10
2018-12-01T00:17:38.277Z,7.10
2018-12-01T00:20:11.025Z,7.20
2018-12-01T00:22:39.267Z,7.10
2018-12-01T00:25:08.309Z,7.10
2018-12-01T00:27:36.852Z,7.10
2018-12-01T00:30:08.882Z,7.20
2018-12-01T00:32:37.341Z,7.20
2018-12-01T00:35:06.403Z,7.20
2018-12-01T00:37:34.948Z,7.20
2018-12-01T00:40:03.221Z,7.20
2018-12-01T00:42:31.477Z,7.20
2018-12-01T00:45:00.115Z,7.20
2018-12-01T00:47:29.136Z,7.20
2018-12-01T00:49:57.865Z,7.20
2018-12-01T00:52:26.774Z,7.20
2018-12-01T00:54:55.829Z,7.20
2018-12-01T00:57:24.045Z,7.30
2018-12-01T00:59:52.233Z,7.30
2018-12-01T01:02:25.802Z,7.30
2018-12-01T01:04:54.393Z,7.30
2018-12-01T01:07:23.224Z,7.40
2018-12-01T01:09:51.445Z,7.30
2018-12-01T01:12:20.036Z,7.30
2018-12-01T01:14:49.232Z,7.30
2018-12-01T01:17:17.949Z,7.30
2018-12-01T01:19:46.545Z,7.30
2018-12-01T01:22:14.740Z,7.30
2018-12-01T01:24:42.969Z,7.30
2018-12-01T01:27:11.911Z,7.20
2018-12-01T01:29:40.201Z,7.20
2018-12-01T01:32:08.633Z,7.30
2018-12-01T01:34:36.845Z,7.30
2018-12-01T01:37:05.651Z,7.30
2018-12-01T01:40:37.944Z,7.30
2018-12-01T01:43:06.151Z,7.30
2018-12-01T01:45:34.676Z,7.20
2018-12-01T01:48:03.637Z,7.20
2018-12-01T01:50:32.395Z,7.20
2018-12-01T01:53:01.346Z,7.20
2018-12-01T01:55:29.597Z,7.10
2018-12-01T01:57:57.802Z,7.10
2018-12-01T02:00:26.267Z,7.10
2018-12-01T02:02:54.877Z,7.10
2018-12-01T02:05:23.523Z,7.00
2018-12-01T02:07:51.728Z,7.10
2018-12-01T02:10:21.117Z,7.00
2018-12-01T02:12:49.294Z,7.00
2018-12-01T02:15:18.068Z,7.00
2018-12-01T02:17:46.297Z,6.90
2018-12-01T02:20:15.570Z,6.90
2018-12-01T02:22:44.150Z,6.90
2018-12-01T02:25:14.163Z,6.80
2018-12-01T02:27:42.810Z,6.80
2018-12-01T02:30:13.909Z,6.80
2018-12-01T02:32:42.111Z,6.80
2018-12-01T02:35:13.011Z,6.80
2018-12-01T02:37:41.625Z,6.80
2018-12-01T02:40:10.891Z,6.80
2018-12-01T02:42:39.922Z,6.70
2018-12-01T02:47:21.264Z,6.70
2018-12-01T02:49:49.674Z,6.70
2018-12-01T02:52:18.249Z,6.70
2018-12-01T02:54:46.785Z,6.70
2018-12-01T02:57:14.981Z,6.70
2018-12-01T02:59:43.561Z,6.70
2018-12-01T03:02:12.153Z,6.60
2018-12-01T03:04:40.709Z,6.60
2018-12-01T03:07:08.935Z,6.60
2018-12-01T03:09:37.181Z,6.60
2018-12-01T03:12:05.734Z,6.50
2018-12-01T03:14:34.174Z,6.50
2018-12-01T03:17:02.418Z,6.50
2018-12-01T03:19:31.033Z,6.40
2018-12-01T03:21:59.253Z,6.40
2018-12-01T03:24:27.542Z,6.40
2018-12-01T03:26:56.117Z,6.40
2018-12-01T03:29:24.353Z,6.40
2018-12-01T03:31:52.930Z,6.30
2018-12-01T03:34:21.153Z,6.30
2018-12-01T03:36:49.850Z,6.30
2018-12-01T03:39:18.069Z,6.20
2018-12-01T03:41:46.301Z,6.20
2018-12-01T03:44:14.736Z,6.20
2018-12-01T03:46:42.972Z,6.20
2018-12-01T03:49:11.725Z,6.20
2018-12-01T03:51:39.962Z,6.10
2018-12-01T03:54:08.485Z,6.10
2018-12-01T03:56:36.709Z,6.20
2018-12-01T03:59:05.363Z,6.10
2018-12-01T04:01:34.274Z,6.10
2018-12-01T04:04:03.059Z,6.10
2018-12-01T04:06:31.533Z,6.10
2018-12-01T04:09:04.541Z,6.10
2018-12-01T04:11:32.793Z,6.10
2018-12-01T04:14:01.393Z,6.10
2018-12-01T04:16:29.607Z,6.10
2018-12-01T04:18:57.822Z,6.00
2018-12-01T04:21:26.051Z,6.00
2018-12-01T04:23:54.399Z,6.00
2018-12-01T04:26:22.616Z,6.00
2018-12-01T04:28:51.040Z,6.10
2018-12-01T04:31:19.893Z,6.10
2018-12-01T04:33:48.686Z,6.10
2018-12-01T04:36:16.885Z,6.00
2018-12-01T04:38:45.662Z,6.10
2018-12-01T04:41:14.081Z,6.10
2018-12-01T04:43:42.458Z,6.10
2018-12-01T04:46:10.690Z,6.10
2018-12-01T04:48:39.397Z,6.10
2018-12-01T04:51:08.010Z,6.10
2018-12-01T04:53:36.198Z,6.10
2018-12-01T04:56:05.160Z,6.10
2018-12-01T04:58:33.678Z,6.10
2018-12-01T05:01:01.859Z,6.10
2018-12-01T05:03:30.448Z,6.20
2018-12-01T05:05:58.674Z,6.20
2018-12-01T05:08:26.914Z,6.30
2018-12-01T05:10:55.095Z,6.40
2018-12-01T05:13:23.329Z,6.40
2018-12-01T05:15:51.545Z,6.40
2018-12-01T05:18:20.224Z,6.40
2018-12-01T05:20:48.793Z,6.50
2018-12-01T05:23:17.005Z,6.50
2018-12-01T05:25:45.450Z,6.50
2018-12-01T05:28:13.628Z,6.50
2018-12-01T05:30:41.857Z,6.50
2018-12-01T05:33:10.104Z,6.60
2018-12-01T05:35:38.691Z,6.60
2018-12-01T05:38:07.417Z,6.50
2018-12-01T05:40:35.965Z,6.50
2018-12-01T05:43:04.750Z,6.50
2018-12-01T05:45:33.551Z,6.50
2018-12-01T05:48:02.382Z,6.50
2018-12-01T05:50:31.344Z,6.40
2018-12-01T05:52:59.599Z,6.40
2018-12-01T05:55:27.832Z,6.40
2018-12-01T05:57:56.305Z,6.30
2018-12-01T06:00:25.271Z,6.30
2018-12-01T06:02:54.017Z,6.30
2018-12-01T06:05:22.442Z,6.20
2018-12-01T06:07:50.689Z,6.20
2018-12-01T06:10:21.881Z,6.20
2018-12-01T06:12:51.304Z,6.20
2018-12-01T06:15:20.222Z,6.20
2018-12-01T06:17:49.100Z,6.20
2018-12-01T06:20:19.924Z,6.20
2018-12-01T06:22:48.158Z,6.20
2018-12-01T06:25:17.449Z,6.20
2018-12-01T06:27:46.245Z,6.20
2018-12-01T06:30:15.373Z,6.10
2018-12-01T06:32:43.796Z,6.10
2018-12-01T06:35:12.452Z,6.20
2018-12-01T06:37:41.034Z,6.20
2018-12-01T06:40:13.573Z,6.20
2018-12-01T06:42:41.825Z,6.20
2018-12-01T06:45:13.549Z,6.20
2018-12-01T06:47:41.850Z,6.20
2018-12-01T06:50:12.377Z,6.10
2018-12-01T06:52:41.008Z,6.10
2018-12-01T06:55:10.994Z,6.10
2018-12-01T06:57:39.293Z,6.10
2018-12-01T07:00:12.187Z,6.10
2018-12-01T07:02:40.569Z,6.10
2018-12-01T07:05:10.285Z,6.10
2018-12-01T07:07:38.529Z,6.00
2018-12-01T07:10:09.353Z,6.10
2018-12-01T07:12:37.776Z,6.10
2018-12-01T07:15:08.462Z,6.10
2018-12-01T07:17:36.997Z,6.10
2018-12-01T07:20:06.399Z,6.00
2018-12-01T07:22:34.585Z,6.00
2018-12-01T07:25:02.762Z,6.00
2018-12-01T07:27:31.025Z,6.00
2018-12-01T07:29:59.198Z,6.10
2018-12-01T07:32:27.364Z,6.10
2018-12-01T07:34:55.552Z,6.10
2018-12-01T07:37:23.787Z,6.10
2018-12-01T07:39:52.455Z,6.10
2018-12-01T07:42:20.656Z,6.10
2018-12-01T07:44:48.791Z,6.00
2018-12-01T07:47:17.391Z,6.00
2018-12-01T07:49:45.547Z,6.00
2018-12-01T07:52:13.737Z,6.10
2018-12-01T07:54:41.890Z,6.10
2018-12-01T07:57:10.053Z,6.10
2018-12-01T07:59:38.240Z,6.20
2018-12-01T08:02:06.464Z,6.10
2018-12-01T08:04:34.627Z,6.20
2018-12-01T08:07:02.780Z,6.30
2018-12-01T08:09:30.933Z,6.30
2018-12-01T08:11:59.096Z,6.30
2018-12-01T08:14:27.248Z,6.30
2018-12-01T08:16:55.401Z,6.40
2018-12-01T08:19:23.557Z,6.40
2018-12-01T08:21:51.704Z,6.40
2018-12-01T08:24:19.849Z,6.50
2018-12-01T08:26:48.021Z,6.50
2018-12-01T08:29:16.197Z,6.50
2018-12-01T08:31:44.349Z,6.50
2018-12-01T08:34:12.505Z,6.60
2018-12-01T08:36:40.641Z,6.60
2018-12-01T08:39:09.140Z,6.60
2018-12-01T08:41:37.497Z,6.70
2018-12-01T08:44:05.665Z,6.70
2018-12-01T08:46:33.833Z,6.70
2018-12-01T08:49:01.973Z,6.80
2018-12-01T08:51:30.118Z,6.90
2018-12-01T08:53:58.281Z,6.90
2018-12-01T08:56:26.423Z,7.00
2018-12-01T08:58:54.568Z,7.10
2018-12-01T09:01:22.724Z,7.10
2018-12-01T09:03:50.877Z,7.20
2018-12-01T09:06:19.034Z,7.20
2018-12-01T09:08:47.209Z,7.20
2018-12-01T09:11:15.378Z,7.30
2018-12-01T09:13:43.523Z,7.40
2018-12-01T09:16:11.652Z,7.40
2018-12-01T09:18:39.843Z,7.40
2018-12-01T09:21:07.984Z,7.50
2018-12-01T09:23:36.154Z,7.50
2018-12-01T09:26:05.425Z,7.50
2018-12-01T09:28:33.578Z,7.60
2018-12-01T09:31:01.757Z,7.70
2018-12-01T09:33:29.933Z,7.70
2018-12-01T09:35:58.100Z,7.70
2018-12-01T09:38:26.256Z,7.70
2018-12-01T09:40:54.428Z,7.80
2018-12-01T09:43:29.067Z,7.90
2018-12-01T09:45:57.361Z,7.90
2018-12-01T09:48:25.566Z,7.90
2018-12-01T09:50:53.756Z,8.00
2018-12-01T09:53:21.928Z,8.00
2018-12-01T09:55:50.115Z,8.10
2018-12-01T09:58:18.293Z,8.10
2018-12-01T10:00:46.467Z,8.10
2018-12-01T10:03:14.640Z,8.10
2018-12-01T10:05:42.845Z,8.20
2018-12-01T10:08:11.029Z,8.30
2018-12-01T10:10:39.210Z,8.30
2018-12-01T10:13:07.362Z,8.40
2018-12-01T10:15:36.441Z,8.60
2018-12-01T10:18:05.994Z,8.70
2018-12-01T10:20:34.844Z,8.80
2018-12-01T10:23:05.453Z,8.80
2018-12-01T10:25:33.606Z,8.90
2018-12-01T10:28:01.766Z,9.00
2018-12-01T10:30:30.005Z,9.20
2018-12-01T10:32:58.164Z,9.40
2018-12-01T10:35:26.908Z,9.40
2018-12-01T10:38:06.501Z,9.50
2018-12-01T10:40:34.668Z,9.30
2018-12-01T10:43:02.821Z,9.30
2018-12-01T10:45:30.980Z,9.30
2018-12-01T10:47:59.153Z,9.40
2018-12-01T10:50:27.340Z,9.50
2018-12-01T10:52:55.696Z,9.50
2018-12-01T10:55:28.864Z,9.50
2018-12-01T10:58:16.134Z,9.50
2018-12-01T11:00:50.590Z,9.40
2018-12-01T11:03:24.146Z,9.40
2018-12-01T11:05:52.988Z,9.50
2018-12-01T11:08:21.154Z,9.40
2018-12-01T11:10:55.077Z,9.50
2018-12-01T11:13:17.548Z,9.50
2018-12-01T11:15:45.719Z,9.50
2018-12-01T11:18:13.896Z,9.60
2018-12-01T11:20:42.127Z,9.70
2018-12-01T11:23:10.320Z,9.50
2018-12-01T11:25:39.176Z,9.50
2018-12-01T11:28:07.349Z,9.50
2018-12-01T11:30:37.176Z,9.50
2018-12-01T11:33:05.390Z,9.50
2018-12-01T11:35:33.561Z,9.60
2018-12-01T11:38:01.743Z,9.60
2018-12-01T11:40:29.916Z,9.70
2018-12-01T11:42:58.104Z,9.70
2018-12-01T11:45:26.280Z,9.70
2018-12-01T11:47:54.472Z,9.80
2018-12-01T11:50:22.665Z,9.90
2018-12-01T11:52:51.068Z,10.00
2018-12-01T11:55:21.220Z,10.00
2018-12-01T11:57:49.466Z,10.00
2018-12-01T12:00:21.379Z,9.90
2018-12-01T12:02:49.530Z,9.80
2018-12-01T12:05:17.820Z,9.80
2018-12-01T12:07:57.369Z,10.00
2018-12-01T12:10:25.565Z,10.00
2018-12-01T12:12:53.735Z,10.10
2018-12-01T12:15:22.796Z,10.30
2018-12-01T12:17:57.121Z,10.30
2018-12-01T12:20:25.294Z,10.20
2018-12-01T12:22:53.501Z,10.20
2018-12-01T12:25:21.728Z,10.30
2018-12-01T12:27:49.898Z,10.40
2018-12-01T12:30:18.942Z,10.50
2018-12-01T12:32:47.306Z,10.50
2018-12-01T12:35:16.538Z,10.60
2018-12-01T12:37:44.697Z,10.70
2018-12-01T12:40:19.036Z,10.80
2018-12-01T12:42:47.299Z,10.80
2018-12-01T12:45:15.648Z,10.80
2018-12-01T12:47:43.813Z,10.80
2018-12-01T12:50:16.018Z,10.70
2018-12-01T12:52:44.950Z,10.70
2018-12-01T12:55:18.777Z,10.70
2018-12-01T12:57:46.931Z,10.50
2018-12-01T13:00:19.976Z,10.40
2018-12-01T13:02:50.236Z,10.50
2018-12-01T13:05:27.330Z,10.50
2018-12-01T13:07:55.506Z,10.40
2018-12-01T13:10:24.541Z,10.40
2018-12-01T13:12:52.696Z,10.40
2018-12-01T13:15:20.852Z,10.40
2018-12-01T13:17:49.017Z,10.40
2018-12-01T13:20:18.346Z,10.30
2018-12-01T13:22:47.612Z,10.20
2018-12-01T13:25:16.029Z,10.20
2018-12-01T13:27:58.537Z,10.20
2018-12-01T13:30:28.266Z,10.20
2018-12-01T13:32:56.420Z,10.20
2018-12-01T13:35:24.684Z,10.30
2018-12-01T13:37:52.870Z,10.40
2018-12-01T13:40:21.029Z,10.40
2018-12-01T13:42:49.216Z,10.30
2018-12-01T13:45:18.105Z,10.30
2018-12-01T13:47:47.988Z,10.40
2018-12-01T13:50:19.909Z,10.40
2018-12-01T13:52:50.513Z,10.40
2018-12-01T13:55:18.671Z,10.40
2018-12-01T13:57:47.585Z,10.40
2018-12-01T14:00:18.157Z,10.40
2018-12-01T14:02:46.325Z,10.40
2018-12-01T14:05:14.525Z,10.30
2018-12-01T14:07:42.733Z,10.40
2018-12-01T14:10:13.133Z,10.20
2018-12-01T14:12:41.404Z,10.20
2018-12-01T14:15:11.435Z,10.20
2018-12-01T14:17:40.076Z,10.20
2018-12-01T14:20:09.623Z,10.10
2018-12-01T14:22:37.792Z,10.10
2018-12-01T14:25:07.605Z,10.00
2018-12-01T14:27:35.781Z,10.00
2018-12-01T14:30:05.914Z,10.00
2018-12-01T14:32:34.101Z,10.00
2018-12-01T14:35:02.293Z,10.00
2018-12-01T14:37:30.468Z,9.90
2018-12-01T14:39:58.669Z,9.90
2018-12-01T14:42:26.824Z,9.80
2018-12-01T14:44:55.037Z,9.80
2018-12-01T14:47:23.233Z,9.70
2018-12-01T14:49:51.409Z,9.70
2018-12-01T14:52:22.337Z,9.70
2018-12-01T14:54:51.091Z,9.60
2018-12-01T14:57:19.267Z,9.60
2018-12-01T14:59:54.264Z,9.50
2018-12-01T15:02:22.470Z,9.60
2018-12-01T15:04:50.673Z,9.50
2018-12-01T15:07:18.881Z,9.40
2018-12-01T15:09:47.089Z,9.40
2018-12-01T15:12:15.281Z,9.40
2018-12-01T15:14:43.513Z,9.40
2018-12-01T15:17:11.724Z,9.40
2018-12-01T15:19:39.905Z,9.30
2018-12-01T15:22:08.085Z,9.30
2018-12-01T15:24:36.280Z,9.30
2018-12-01T15:27:04.496Z,9.30
2018-12-01T15:29:32.685Z,9.30
2018-12-01T15:32:01.084Z,9.30
2018-12-01T15:34:29.243Z,9.30
2018-12-01T15:36:57.425Z,9.20
2018-12-01T15:39:28.524Z,9.20
2018-12-01T15:41:56.841Z,9.20
2018-12-01T15:44:25.074Z,9.20
2018-12-01T15:46:53.729Z,9.20
2018-12-01T15:49:21.929Z,9.20
2018-12-01T15:51:50.625Z,9.20
2018-12-01T15:54:18.809Z,9.20
2018-12-01T15:56:47.031Z,9.20
2018-12-01T15:59:15.273Z,9.20
2018-12-01T16:01:43.440Z,9.20
2018-12-01T16:04:11.603Z,9.10
2018-12-01T16:06:39.886Z,9.10
2018-12-01T16:09:09.641Z,9.00
2018-12-01T16:11:37.917Z,9.00
2018-12-01T16:14:08.362Z,9.10
2018-12-01T16:16:36.793Z,9.00
2018-12-01T16:19:05.871Z,9.00
2018-12-01T16:21:34.113Z,9.00
2018-12-01T16:24:02.283Z,9.00
2018-12-01T16:26:30.435Z,9.00
2018-12-01T16:28:58.626Z,9.00
2018-12-01T16:31:26.861Z,9.10
2018-12-01T16:33:55.038Z,9.00
2018-12-01T16:36:23.243Z,9.10
2018-12-01T16:38:51.480Z,9.10
2018-12-01T16:41:22.457Z,9.20
2018-12-01T16:43:50.685Z,9.20
2018-12-01T16:46:18.876Z,9.10
2018-12-01T16:48:47.105Z,9.00
2018-12-01T16:51:15.333Z,9.00
2018-12-01T16:53:43.559Z,8.90
2018-12-01T16:56:11.720Z,9.00
2018-12-01T16:58:39.957Z,9.00
2018-12-01T17:01:08.156Z,9.00
2018-12-01T17:03:36.353Z,9.10
2018-12-01T17:06:07.792Z,8.90
2018-12-01T17:08:35.957Z,8.90
2018-12-01T17:11:04.132Z,8.90
2018-12-01T17:13:32.305Z,8.90
2018-12-01T17:16:00.481Z,9.00
2018-12-01T17:18:28.672Z,9.00
2018-12-01T17:20:56.860Z,9.00
2018-12-01T17:23:25.043Z,9.00
2018-12-01T17:25:53.212Z,9.00
2018-12-01T17:28:21.400Z,9.10
2018-12-01T17:30:49.996Z,9.10
2018-12-01T17:33:18.433Z,8.90
2018-12-01T17:35:46.599Z,8.90
2018-12-01T17:38:16.413Z,8.90
2018-12-01T17:41:13.360Z,8.90
2018-12-01T17:43:55.117Z,8.90
2018-12-01T17:46:23.252Z,8.90
2018-12-01T17:48:51.412Z,8.80
2018-12-01T17:51:19.585Z,8.80
2018-12-01T17:53:50.885Z,8.90
2018-12-01T17:56:19.072Z,9.00
2018-12-01T17:58:47.248Z,8.90
2018-12-01T18:01:15.425Z,8.90
2018-12-01T18:03:43.576Z,9.00
2018-12-01T18:06:12.704Z,9.00
2018-12-01T18:08:41.881Z,8.90
2018-12-01T18:11:10.728Z,8.90
2018-12-01T18:13:40.207Z,8.90
2018-12-01T18:16:07.581Z,8.90
2018-12-01T18:18:35.730Z,8.90
2018-12-01T18:21:03.971Z,8.90
2018-12-01T18:23:32.260Z,8.90
2018-12-01T18:26:00.470Z,8.90
2018-12-01T18:28:32.748Z,8.90
2018-12-01T18:31:01.220Z,8.90
2018-12-01T18:33:33.430Z,9.00
2018-12-01T18:36:01.620Z,8.90
2018-12-01T18:38:29.843Z,8.90
2018-12-01T18:40:58.239Z,8.90
2018-12-01T18:43:26.443Z,8.90
2018-12-01T18:45:57.374Z,8.90
2018-12-01T18:48:25.588Z,9.00
2018-12-01T18:50:53.711Z,8.90
2018-12-01T18:53:21.889Z,8.90
2018-12-01T18:55:54.866Z,9.00
2018-12-01T18:58:23.053Z,9.00
2018-12-01T19:00:52.485Z,9.00
2018-12-01T19:03:23.122Z,9.00
2018-12-01T19:05:51.288Z,8.90
2018-12-01T19:08:19.626Z,8.90
2018-12-01T19:10:47.820Z,8.90
2018-12-01T19:13:16.631Z,9.00
2018-12-01T19:15:44.902Z,8.90
2018-12-01T19:18:13.286Z,8.90
2018-12-01T19:20:41.477Z,8.90
2018-12-01T19:23:12.124Z,8.90
2018-12-01T19:25:41.925Z,8.90
2018-12-01T19:28:10.189Z,8.80
2018-12-01T19:30:38.379Z,8.80
2018-12-01T19:33:14.698Z,8.80
2018-12-01T19:35:43.416Z,8.90
2018-12-01T19:38:16.097Z,8.80
2018-12-01T19:40:44.741Z,8.70
2018-12-01T19:43:12.935Z,8.90
2018-12-01T19:45:41.090Z,8.80
2018-12-01T19:48:10.072Z,8.80
2018-12-01T19:50:39.173Z,8.70
2018-12-01T19:53:08.472Z,8.70
2018-12-01T19:55:36.851Z,8.70
2018-12-01T19:58:13.421Z,8.70
2018-12-01T20:00:42.754Z,8.70
2018-12-01T20:03:16.289Z,8.70
2018-12-01T20:05:44.565Z,8.70
2018-12-01T20:08:13.720Z,8.80
2018-12-01T20:10:47.233Z,8.80
2018-12-01T20:13:20.100Z,8.80
2018-12-01T20:15:50.135Z,8.80
2018-12-01T20:18:20.533Z,8.80
2018-12-01T20:20:48.785Z,8.80
2018-12-01T20:23:16.953Z,8.80
2018-12-01T20:25:46.820Z,8.80
2018-12-01T20:28:15.053Z,8.80
2018-12-01T20:30:43.450Z,8.80
2018-12-01T20:33:11.932Z,8.80
2018-12-01T20:35:51.363Z,8.80
2018-12-01T20:38:31.848Z,8.80
2018-12-01T20:41:00.022Z,8.90
2018-12-01T20:43:28.214Z,8.90
2018-12-01T20:45:56.364Z,8.90
2018-12-01T20:48:24.535Z,8.90
2018-12-01T20:50:52.844Z,8.80
2018-12-01T20:53:21.125Z,8.80
2018-12-01T20:55:52.944Z,8.80
2018-12-01T20:58:21.375Z,8.90
2018-12-01T21:00:49.544Z,8.90
2018-12-01T21:03:17.764Z,8.90
2018-12-01T21:05:45.935Z,9.00
2018-12-01T21:08:14.139Z,9.00
2018-12-01T21:10:45.622Z,8.90
2018-12-01T21:13:13.803Z,8.90
2018-12-01T21:15:41.972Z,8.90
2018-12-01T21:18:10.137Z,9.00
2018-12-01T21:20:38.332Z,9.00
2018-12-01T21:23:06.574Z,9.00
2018-12-01T21:25:34.738Z,8.90
2018-12-01T21:28:02.945Z,8.90
2018-12-01T21:30:31.534Z,8.90
2018-12-01T21:33:03.046Z,8.90
2018-12-01T21:35:31.218Z,8.90
2018-12-01T21:37:59.481Z,8.90
2018-12-01T21:40:27.645Z,8.90
2018-12-01T21:42:55.843Z,8.90
2018-12-01T21:45:24.001Z,8.90
2018-12-01T21:47:52.181Z,8.90
2018-12-01T21:50:21.961Z,8.90
2018-12-01T21:52:54.158Z,8.90
2018-12-01T21:55:23.226Z,8.90
2018-12-01T21:57:52.604Z,8.90
2018-12-01T22:00:23.892Z,8.90
2018-12-01T22:02:57.600Z,8.90
2018-12-01T22:05:37.833Z,8.90
2018-12-01T22:08:07.561Z,8.90
2018-12-01T22:10:35.716Z,8.90
2018-12-01T22:13:03.905Z,8.90
2018-12-01T22:15:32.081Z,8.80
2018-12-01T22:18:00.490Z,8.90
2018-12-01T22:20:28.650Z,8.90
2018-12-01T22:22:56.818Z,8.90
2018-12-01T22:25:24.980Z,8.80
2018-12-01T22:27:53.168Z,8.80
2018-12-01T22:30:21.633Z,8.80
2018-12-01T22:32:52.240Z,8.80
2018-12-01T22:35:21.357Z,8.80
2018-12-01T22:37:50.098Z,8.70
2018-12-01T22:40:19.465Z,8.80
2018-12-01T22:42:48.176Z,8.70
2018-12-01T22:47:44.322Z,8.70
2018-12-01T22:50:13.596Z,8.80
2018-12-01T22:52:41.773Z,8.80
2018-12-01T22:55:15.157Z,8.80
2018-12-01T22:57:45.728Z,8.80
2018-12-01T23:00:20.406Z,8.80
2018-12-01T23:02:48.589Z,8.80
2018-12-01T23:05:17.074Z,8.80
2018-12-01T23:07:44.971Z,8.80
2018-12-01T23:10:14.040Z,8.80
2018-12-01T23:12:42.713Z,8.80
2018-12-01T23:15:19.588Z,8.80
2018-12-01T23:17:48.601Z,8.90
2018-12-01T23:20:19.738Z,8.80
2018-12-01T23:22:48.293Z,8.80
2018-12-01T23:25:16.436Z,8.80
2018-12-01T23:27:44.585Z,8.90
2018-12-01T23:30:24.745Z,8.90
2018-12-01T23:33:05.225Z,8.90
2018-12-01T23:35:33.400Z,8.90
2018-12-01T23:38:01.552Z,8.90
2018-12-01T23:40:29.723Z,8.90
2018-12-01T23:42:57.890Z,8.90
2018-12-01T23:45:26.052Z,8.90
2018-12-01T23:47:54.234Z,8.90
2018-12-01T23:50:24.322Z,8.90
2018-12-01T23:52:59.644Z,8.90
2018-12-01T23:55:27.817Z,8.90
2018-12-01T23:58:02.309Z,8.90
